Time;durP1;ratioP1;P1;durP2;ratioP2;P2;SDS_P1;SDS_P2;PMS_P1;PMS_P2;Temp;Humidity;BMP_temperature;BMP_pressure;BME280_temperature;BME280_humidity;BME280_pressure;Samples;Min_cycle;Max_cycle;Signal;HPM_P1;HPM_P2
2021/04/15 00:00:25;;;;;;;6.50;3.53;;;;;;;5.15;63.51;97612.28;5060085;28;20502;-84
2021/04/15 00:02:51;;;;;;;6.15;3.50;;;;;;;5.18;63.63;97609.50;5080130;28;20023;-84
2021/04/15 00:05:27;;;;;;;5.35;3.35;;;;;;;5.31;63.00;97601.91;5071332;28;20035;-84
2021/04/15 00:07:53;;;;;;;4.32;3.70;;;;;;;5.27;63.39;97597.66;5080628;28;20414;-84
2021/04/15 00:10:19;;;;;;;7.00;3.60;;;;;;;5.22;63.39;97603.16;5077267;28;20092;-84
2021/04/15 00:12:45;;;;;;;5.85;3.40;;;;;;;5.27;63.75;97613.56;5069769;28;20505;-84
2021/04/15 00:15:13;;;;;;;4.53;3.42;;;;;;;5.21;64.65;97608.50;5059164;28;20032;-84
2021/04/15 00:17:39;;;;;;;5.22;3.80;;;;;;;5.10;63.64;97592.19;5078314;28;20028;-84
2021/04/15 00:20:06;;;;;;;4.43;2.90;;;;;;;5.17;63.62;97599.81;5061597;28;20069;-83
2021/04/15 00:22:32;;;;;;;6.03;3.38;;;;;;;5.08;63.94;97597.53;5062400;28;20028;-83
2021/04/15 00:24:59;;;;;;;6.90;3.50;;;;;;;5.07;64.59;97600.25;5063274;28;20093;-84
2021/04/15 00:27:25;;;;;;;6.57;3.65;;;;;;;5.00;65.80;97601.41;5063527;28;20035;-84
2021/04/15 00:29:51;;;;;;;5.75;3.50;;;;;;;4.81;65.55;97588.88;5070793;28;20024;-84
2021/04/15 00:32:16;;;;;;;7.50;3.95;;;;;;;4.75;65.77;97583.81;5084924;28;20023;-84
2021/04/15 00:34:42;;;;;;;7.70;4.18;;;;;;;4.75;66.97;97597.06;5089884;28;20063;-84
2021/04/15 00:37:07;;;;;;;5.65;3.63;;;;;;;4.81;67.24;97615.38;5066073;28;20024;-84
2021/04/15 00:39:33;;;;;;;5.43;3.67;;;;;;;4.73;67.92;97612.16;5064684;28;20027;-84
2021/04/15 00:41:59;;;;;;;5.47;3.60;;;;;;;4.66;68.58;97613.31;5064863;28;20012;-84
2021/04/15 00:44:24;;;;;;;4.78;3.38;;;;;;;4.56;68.76;97601.31;5080375;28;20051;-84
2021/04/15 00:47:00;;;;;;;4.68;3.22;;;;;;;4.42;69.60;97595.69;5104678;28;20033;-84
2021/04/15 00:49:33;;;;;;;5.05;3.45;;;;;;;4.42;69.20;97592.16;5064318;28;20040;-84
2021/04/15 00:52:03;;;;;;;5.22;3.35;;;;;;;4.37;69.47;97592.31;5051170;28;20112;-84
2021/04/15 00:54:45;;;;;;;4.40;3.40;;;;;;;4.28;70.55;97580.28;5076800;28;20028;-84
2021/04/15 00:57:18;;;;;;;5.28;3.40;;;;;;;4.18;70.59;97580.69;5064315;28;20089;-84
2021/04/15 00:59:45;;;;;;;4.65;3.38;;;;;;;4.17;71.01;97592.19;5064612;28;20137;-84
2021/04/15 01:02:13;;;;;;;5.53;3.55;;;;;;;4.16;71.36;97599.25;5064367;28;20020;-84
2021/04/15 01:04:39;;;;;;;7.25;4.18;;;;;;;4.10;71.28;97593.31;5065090;28;20023;-84
2021/04/15 01:07:04;;;;;;;4.60;3.42;;;;;;;4.11;71.65;97600.34;5072629;28;20036;-84
2021/04/15 01:09:30;;;;;;;7.32;4.15;;;;;;;4.02;72.36;97590.09;5067081;28;20031;-83
2021/04/15 01:12:32;;;;;;;4.72;3.58;;;;;;;4.01;72.97;97589.22;5096119;28;20036;-83
2021/04/15 01:15:16;;;;;;;5.22;3.75;;;;;;;3.92;72.87;97591.31;5045331;28;20024;-83
2021/04/15 01:17:57;;;;;;;4.63;3.30;;;;;;;3.93;73.16;97593.06;5101711;28;20426;-82
2021/04/15 01:20:49;;;;;;;5.32;3.70;;;;;;;3.72;73.84;97563.78;5090942;28;20032;-83
2021/04/15 01:24:03;;;;;;;5.18;3.15;;;;;;;3.65;73.46;97557.00;5064861;28;20553;-84
2021/04/15 01:26:51;;;;;;;5.18;3.33;;;;;;;3.78;73.24;97584.72;5025011;28;20486;-84
2021/04/15 01:29:41;;;;;;;4.70;2.90;;;;;;;3.70;72.72;97573.56;5079953;28;20027;-84
2021/04/15 01:32:22;;;;;;;5.10;3.47;;;;;;;3.75;73.32;97576.06;5066577;28;20048;-84
2021/04/15 01:35:32;;;;;;;5.18;3.63;;;;;;;3.72;72.93;97576.16;5083149;28;20091;-84
2021/04/15 01:38:31;;;;;;;5.15;3.58;;;;;;;3.70;74.93;97589.41;5071752;28;20034;-83
2021/04/15 01:41:17;;;;;;;4.53;3.30;;;;;;;3.72;74.72;97584.09;5072655;28;20032;-83
2021/04/15 01:43:50;;;;;;;4.65;3.38;;;;;;;3.62;77.12;97580.03;5071625;28;20032;-84
2021/04/15 01:46:18;;;;;;;5.55;3.45;;;;;;;3.44;76.05;97552.44;5070551;28;20038;-84
2021/04/15 01:48:52;;;;;;;4.50;3.33;;;;;;;3.64;74.98;97584.34;5068500;28;20047;-83
2021/04/15 01:51:27;;;;;;;5.55;3.63;;;;;;;3.66;73.97;97577.22;5104612;28;20027;-83
2021/04/15 01:54:13;;;;;;;4.90;3.13;;;;;;;3.72;73.69;97579.66;5055731;28;20032;-84
2021/04/15 01:56:44;;;;;;;5.72;3.38;;;;;;;3.66;75.01;97577.22;5069560;28;20020;-84
2021/04/15 01:59:18;;;;;;;4.60;3.38;;;;;;;3.33;74.49;97528.13;5104299;28;20088;-83
2021/04/15 02:01:53;;;;;;;5.80;3.38;;;;;;;3.39;74.94;97538.50;5071926;28;20028;-83
2021/04/15 02:04:22;;;;;;;6.38;3.20;;;;;;;3.59;75.76;97575.72;5104806;28;20036;-83
2021/04/15 02:06:53;;;;;;;5.30;3.67;;;;;;;3.54;75.90;97572.34;5068776;28;20052;-83
2021/04/15 02:09:19;;;;;;;6.28;3.90;;;;;;;3.36;76.28;97557.09;5071882;28;20029;-83
2021/04/15 02:12:13;;;;;;;7.65;3.90;;;;;;;3.35;78.21;97550.09;5064603;28;20028;-83
2021/04/15 02:14:41;;;;;;;5.90;3.58;;;;;;;3.40;76.94;97566.66;5054932;28;20030;-83
2021/04/15 02:17:07;;;;;;;5.68;3.80;;;;;;;3.20;79.57;97551.44;5076256;28;20145;-83
2021/04/15 02:19:36;;;;;;;5.28;3.53;;;;;;;3.26;77.71;97568.91;5082939;28;20016;-83
2021/04/15 02:22:10;;;;;;;4.75;3.33;;;;;;;3.32;77.38;97570.47;5084404;28;20027;-83
2021/04/15 02:24:54;;;;;;;6.45;3.92;;;;;;;3.47;75.96;97584.06;5084376;28;20032;-82
2021/04/15 02:27:25;;;;;;;4.35;3.25;;;;;;;3.47;75.65;97585.84;5066522;28;20028;-83
2021/04/15 02:29:59;;;;;;;4.68;3.28;;;;;;;3.59;74.88;97588.94;5082505;28;20042;-82
2021/04/15 02:32:31;;;;;;;6.75;4.05;;;;;;;3.47;76.69;97586.69;5073148;28;20449;-83
2021/04/15 02:35:07;;;;;;;7.33;3.70;;;;;;;3.46;76.35;97594.66;5081333;28;20028;-83
2021/04/15 02:37:42;;;;;;;6.50;3.85;;;;;;;3.30;78.92;97594.31;5101973;28;20038;-83
2021/04/15 02:40:13;;;;;;;6.15;3.67;;;;;;;3.25;78.28;97593.59;5067027;28;20028;-83
2021/04/15 02:42:40;;;;;;;7.20;3.85;;;;;;;3.24;79.47;97600.66;5090918;28;20032;-84
2021/04/15 02:45:27;;;;;;;7.28;4.80;;;;;;;3.17;79.54;97590.31;5063891;28;20044;-84
2021/04/15 02:48:21;;;;;;;8.00;5.05;;;;;;;3.11;81.17;97603.72;5078663;28;20110;-83
2021/04/15 02:50:47;;;;;;;11.07;4.80;;;;;;;3.03;81.60;97595.19;5079720;28;20024;-83
2021/04/15 02:53:17;;;;;;;8.38;4.55;;;;;;;3.06;83.72;97610.94;5064194;28;20501;-83
2021/04/15 02:55:48;;;;;;;8.27;5.00;;;;;;;3.01;81.79;97607.59;5065597;28;20027;-84
2021/04/15 02:58:21;;;;;;;7.78;4.68;;;;;;;2.99;83.80;97612.91;5098653;28;20375;-84
2021/04/15 03:00:49;;;;;;;11.00;5.13;;;;;;;3.04;83.01;97608.38;5065565;28;20046;-83
2021/04/15 03:03:17;;;;;;;22.67;8.60;;;;;;;3.06;83.19;97608.31;5097291;28;20047;-83
2021/04/15 03:06:03;;;;;;;25.33;8.70;;;;;;;3.05;82.96;97614.50;5086744;28;20038;-83
2021/04/15 03:08:29;;;;;;;9.50;5.80;;;;;;;3.01;82.84;97612.88;5083357;28;20027;-83
2021/04/15 03:11:21;;;;;;;7.53;4.95;;;;;;;2.98;83.75;97618.25;5066441;28;20020;-83
2021/04/15 03:13:54;;;;;;;9.27;4.77;;;;;;;3.03;84.55;97621.63;5055785;28;20044;-83
2021/04/15 03:16:24;;;;;;;8.63;5.03;;;;;;;3.00;83.86;97619.94;5065873;28;20261;-83
2021/04/15 03:19:13;;;;;;;17.50;5.85;;;;;;;2.93;84.06;97618.38;5084761;28;20506;-84
2021/04/15 03:22:03;;;;;;;13.10;6.60;;;;;;;2.88;84.49;97619.44;5079536;28;20118;-83
2021/04/15 03:24:38;;;;;;;10.02;5.22;;;;;;;2.86;85.44;97624.75;5065180;28;20040;-83
2021/04/15 03:27:09;;;;;;;11.48;4.95;;;;;;;2.87;85.83;97621.22;5068522;28;20039;-83
2021/04/15 03:29:41;;;;;;;17.70;6.45;;;;;;;2.78;85.58;97621.50;5086012;28;20032;-84
2021/04/15 03:32:15;;;;;;;15.73;5.45;;;;;;;2.84;85.31;97623.06;5083697;28;20096;-83
2021/04/15 03:34:45;;;;;;;10.52;4.55;;;;;;;2.55;84.94;97584.38;5082365;28;20036;-82
2021/04/15 03:37:15;;;;;;;7.22;4.30;;;;;;;2.88;81.57;97624.72;5081451;28;20088;-83
2021/04/15 03:39:42;;;;;;;11.20;6.07;;;;;;;2.90;81.01;97615.84;5097659;28;20032;-82
2021/04/15 03:42:22;;;;;;;6.97;4.20;;;;;;;3.10;79.83;97628.44;5073517;28;20044;-82
2021/04/15 03:44:51;;;;;;;4.85;3.63;;;;;;;3.11;78.94;97628.38;5073797;28;20383;-84
2021/04/15 03:47:28;;;;;;;6.85;4.00;;;;;;;3.16;77.78;97623.84;5081308;28;20032;-83
2021/04/15 03:49:59;;;;;;;9.10;4.90;;;;;;;3.26;77.51;97613.84;5066674;28;20052;-83
2021/04/15 03:52:29;;;;;;;7.20;4.75;;;;;;;3.33;77.96;97623.28;5065450;28;20038;-84
2021/04/15 03:55:08;;;;;;;7.20;4.22;;;;;;;3.31;76.66;97600.47;5062661;28;20040;-84
2021/04/15 03:57:33;;;;;;;7.82;5.03;;;;;;;3.17;76.21;97571.81;5062947;28;20020;-83
2021/04/15 04:00:22;;;;;;;8.27;5.07;;;;;;;3.41;77.65;97618.63;5062884;28;20123;-83
2021/04/15 04:02:53;;;;;;;10.75;6.90;;;;;;;3.32;77.25;97587.22;5084382;28;20088;-83
2021/04/15 04:05:28;;;;;;;12.43;5.85;;;;;;;3.45;78.05;97609.66;5063705;28;20070;-83
2021/04/15 04:08:02;;;;;;;10.77;5.25;;;;;;;3.54;78.00;97614.66;5076852;28;20028;-83
2021/04/15 04:10:33;;;;;;;19.80;10.35;;;;;;;3.57;76.64;97617.19;5074534;28;20028;-82
2021/04/15 04:13:18;;;;;;;14.80;7.78;;;;;;;3.61;76.48;97628.53;5058217;28;20039;-82
2021/04/15 04:15:48;;;;;;;13.40;7.03;;;;;;;3.71;76.20;97630.84;5068297;28;20020;-83
2021/04/15 04:18:18;;;;;;;16.40;7.50;;;;;;;3.77;77.90;97625.34;5074899;28;20480;-83
2021/04/15 04:20:44;;;;;;;13.10;5.85;;;;;;;3.77;77.52;97614.75;5058737;28;20046;-82
2021/04/15 04:23:27;;;;;;;6.53;3.97;;;;;;;3.81;76.03;97624.28;5070077;28;20024;-82
2021/04/15 04:26:10;;;;;;;5.25;3.92;;;;;;;4.00;75.09;97629.81;5077821;28;20379;-82
2021/04/15 04:29:08;;;;;;;7.05;4.25;;;;;;;4.17;74.19;97637.19;5092506;28;20043;-82
2021/04/15 04:31:38;;;;;;;10.15;4.13;;;;;;;4.23;75.50;97626.38;5072826;28;20035;-83
2021/04/15 04:34:05;;;;;;;8.98;5.05;;;;;;;4.17;76.20;97626.59;5053906;28;20024;-83
2021/04/15 04:36:33;;;;;;;7.15;4.40;;;;;;;4.18;74.61;97628.34;5057124;28;20030;-83
2021/04/15 04:38:58;;;;;;;8.20;4.78;;;;;;;4.15;75.10;97633.75;5064854;28;20024;-83
2021/04/15 04:41:30;;;;;;;9.60;4.88;;;;;;;4.27;76.71;97635.94;5066921;28;20019;-82
2021/04/15 04:44:02;;;;;;;13.18;6.38;;;;;;;4.37;74.68;97635.53;5073920;28;20024;-82
2021/04/15 04:46:30;;;;;;;12.60;5.80;;;;;;;4.37;75.55;97635.53;5093435;28;20483;-82
2021/04/15 04:49:00;;;;;;;12.25;5.18;;;;;;;4.36;74.71;97622.38;5088175;28;20453;-83
2021/04/15 04:51:54;;;;;;;12.73;5.80;;;;;;;4.75;73.90;97631.50;5095700;28;20431;-83
2021/04/15 04:54:20;;;;;;;8.13;4.93;;;;;;;5.88;69.71;97628.72;5075358;28;20046;-84
2021/04/15 04:56:54;;;;;;;16.38;6.18;;;;;;;7.16;63.58;97631.84;5077079;28;20048;-85
2021/04/15 04:59:24;;;;;;;9.45;5.30;;;;;;;7.94;60.97;97635.09;5072805;28;20110;-84
2021/04/15 05:01:50;;;;;;;7.40;5.10;;;;;;;8.32;58.38;97629.66;5075951;28;20041;-84
2021/04/15 05:04:19;;;;;;;13.68;4.50;;;;;;;8.98;55.05;97644.72;5075370;28;20059;-84
2021/04/15 05:06:45;;;;;;;6.78;3.88;;;;;;;9.21;53.65;97639.03;5063400;28;20411;-85
2021/04/15 05:09:15;;;;;;;10.23;4.70;;;;;;;10.18;51.47;97643.31;5085628;28;20032;-85
2021/04/15 05:11:43;;;;;;;10.52;3.72;;;;;;;10.98;48.13;97630.38;5056030;28;20031;-83
2021/04/15 05:14:10;;;;;;;5.95;3.17;;;;;;;11.25;47.09;97633.13;5076493;28;20031;-83
2021/04/15 05:16:38;;;;;;;5.65;3.30;;;;;;;11.71;45.62;97637.28;5067237;28;20028;-74
2021/04/15 05:19:04;;;;;;;7.78;3.90;;;;;;;11.90;45.56;97650.34;5073347;28;20462;-83
2021/04/15 05:21:31;;;;;;;4.85;3.40;;;;;;;12.52;43.91;97646.13;5076892;28;20050;-73
2021/04/15 05:24:16;;;;;;;7.15;3.63;;;;;;;13.84;41.10;97642.09;5065065;28;20063;-83
2021/04/15 05:26:43;;;;;;;8.85;3.53;;;;;;;14.03;39.92;97645.13;5081094;28;20076;-84
2021/04/15 05:29:13;;;;;;;4.57;3.60;;;;;;;14.81;38.45;97632.03;5066905;28;20038;-85
2021/04/15 05:31:42;;;;;;;5.85;3.50;;;;;;;13.87;39.17;97629.28;5049559;28;20027;-84
2021/04/15 05:34:43;;;;;;;8.60;3.90;;;;;;;12.91;40.90;97643.41;5056496;28;20031;-84
2021/04/15 05:37:28;;;;;;;9.30;4.35;;;;;;;12.24;43.41;97667.75;5059126;28;20036;-85
2021/04/15 05:39:55;;;;;;;6.20;4.35;;;;;;;11.64;43.80;97635.06;5067997;28;20035;-85
2021/04/15 05:42:30;;;;;;;11.48;4.10;;;;;;;11.92;44.26;97646.59;5070848;28;20036;-84
2021/04/15 05:45:19;;;;;;;8.13;4.40;;;;;;;12.01;44.41;97665.72;5059351;28;20024;-84
2021/04/15 05:48:01;;;;;;;9.80;3.75;;;;;;;11.91;43.82;97658.28;5086056;28;20487;-84
2021/04/15 05:50:33;;;;;;;19.38;4.68;;;;;;;11.83;44.89;97659.75;5076978;28;20042;-84
2021/04/15 05:53:19;;;;;;;11.98;4.60;;;;;;;12.66;42.96;97656.78;5065549;28;20039;-84
2021/04/15 05:55:46;;;;;;;11.68;5.07;;;;;;;14.35;40.14;97646.31;5056288;28;20411;-85
2021/04/15 05:58:36;;;;;;;6.57;4.28;;;;;;;16.43;35.49;97634.97;5089094;28;20495;-85
2021/04/15 06:01:09;;;;;;;4.65;3.65;;;;;;;17.12;32.69;97603.81;5065186;28;20552;-84
2021/04/15 06:03:37;;;;;;;5.40;3.80;;;;;;;16.88;32.76;97619.44;5056810;28;20478;-84
2021/04/15 06:06:09;;;;;;;4.72;3.65;;;;;;;16.88;32.87;97603.25;5065477;28;20086;-85
2021/04/15 06:08:37;;;;;;;10.48;4.20;;;;;;;17.42;32.61;97605.66;5056862;28;20043;-85
2021/04/15 06:11:09;;;;;;;4.80;3.75;;;;;;;17.66;31.22;97587.25;5056393;28;20479;-85
2021/04/15 06:13:46;;;;;;;5.10;3.30;;;;;;;19.11;29.46;97610.72;5049206;28;20071;-85
2021/04/15 06:16:20;;;;;;;4.20;3.40;;;;;;;20.72;28.49;97626.38;5046532;28;20498;-85
2021/04/15 06:18:50;;;;;;;5.68;3.97;;;;;;;20.83;26.78;97598.06;5072197;28;20099;-85
2021/04/15 06:21:22;;;;;;;5.20;3.72;;;;;;;21.61;25.94;97605.28;5058731;28;20024;-86
2021/04/15 06:23:48;;;;;;;4.75;3.25;;;;;;;20.98;26.29;97610.94;5075796;28;20041;-84
2021/04/15 06:26:23;;;;;;;4.70;4.00;;;;;;;20.73;27.66;97610.91;5080624;28;20027;-84
2021/04/15 06:28:49;;;;;;;3.80;3.40;;;;;;;20.31;25.80;97559.03;5071179;28;20044;-84
2021/04/15 06:31:20;;;;;;;5.05;3.42;;;;;;;19.49;27.20;97578.09;5070792;28;20109;-84
2021/04/15 06:33:46;;;;;;;10.93;5.22;;;;;;;20.21;26.79;97607.16;5070769;28;20400;-86
2021/04/15 06:36:35;;;;;;;5.40;3.63;;;;;;;19.82;26.34;97607.34;5059832;28;20034;-84
2021/04/15 06:39:24;;;;;;;12.52;4.40;;;;;;;19.32;26.98;97598.69;5062192;28;20103;-84
2021/04/15 06:42:26;;;;;;;6.65;4.30;;;;;;;18.45;28.59;97607.06;5071858;28;20090;-84
2021/04/15 06:45:32;;;;;;;10.15;5.78;;;;;;;18.11;29.29;97601.19;5077907;28;20032;-85
2021/04/15 06:48:33;;;;;;;8.70;5.45;;;;;;;18.08;29.58;97609.59;5080905;28;20415;-85
2021/04/15 06:51:27;;;;;;;8.30;5.25;;;;;;;16.98;30.16;97614.97;5082302;28;20167;-85
2021/04/15 06:54:14;;;;;;;13.63;5.65;;;;;;;16.23;31.67;97620.47;5117889;28;20039;-83
2021/04/15 06:57:19;;;;;;;9.00;4.95;;;;;;;15.32;32.74;97630.59;5079795;28;20468;-84
2021/04/15 07:00:07;;;;;;;14.95;6.50;;;;;;;13.90;35.88;97645.22;5076674;28;20040;-85
2021/04/15 07:02:51;;;;;;;17.85;7.70;;;;;;;12.64;39.69;97661.41;5058704;28;20025;-84
2021/04/15 07:05:21;;;;;;;11.15;5.55;;;;;;;12.60;38.64;97659.03;5083979;28;20046;-83
2021/04/15 07:07:56;;;;;;;10.30;6.10;;;;;;;12.47;39.80;97662.53;5073997;28;20035;-83
2021/04/15 07:10:51;;;;;;;31.83;6.15;;;;;;;12.82;39.93;97660.16;5082158;28;20499;-85
2021/04/15 07:13:23;;;;;;;10.73;6.85;;;;;;;12.15;41.24;97673.72;5048772;28;20028;-83
2021/04/15 07:16:00;;;;;;;16.92;6.60;;;;;;;11.80;42.31;97689.41;5073236;28;20055;-83
2021/04/15 07:18:48;;;;;;;6.90;5.32;;;;;;;11.36;42.24;97685.03;5078703;28;20032;-84
2021/04/15 07:21:51;;;;;;;15.30;7.20;;;;;;;10.89;43.84;97684.44;5078056;28;20114;-84
2021/04/15 07:24:30;;;;;;;9.95;6.30;;;;;;;10.97;43.81;97692.88;5069150;28;20035;-83
2021/04/15 07:27:20;;;;;;;7.95;5.72;;;;;;;11.34;42.84;97692.31;5055872;28;20025;-83
2021/04/15 07:30:14;;;;;;;12.15;4.70;;;;;;;11.67;42.45;97675.03;5075593;28;20070;-84
2021/04/15 07:33:03;;;;;;;61.92;38.00;;;;;;;12.17;42.49;97680.69;5059684;28;20062;-85
2021/04/15 07:35:37;;;;;;;8.20;5.47;;;;;;;12.42;40.31;97667.38;5073371;28;20027;-84
2021/04/15 07:38:21;;;;;;;7.25;5.45;;;;;;;12.38;41.02;97668.53;5107558;28;20043;-85
2021/04/15 07:40:56;;;;;;;14.60;8.15;;;;;;;12.90;39.71;97673.03;5075828;28;20039;-84
2021/04/15 07:43:43;;;;;;;7.78;5.30;;;;;;;13.83;37.99;97660.06;5072413;28;20118;-83
2021/04/15 07:46:40;;;;;;;12.38;5.72;;;;;;;14.09;37.65;97652.75;5105508;28;20024;-83
2021/04/15 07:49:30;;;;;;;8.38;5.72;;;;;;;13.81;37.29;97650.41;5059301;28;20400;-84
2021/04/15 07:52:27;;;;;;;9.23;6.75;;;;;;;13.80;37.99;97654.03;5079616;28;20032;-83
2021/04/15 07:55:13;;;;;;;7.65;5.20;;;;;;;13.31;36.89;97657.59;5088303;28;20016;-84
2021/04/15 07:57:55;;;;;;;8.90;5.40;;;;;;;12.71;38.41;97646.59;5059080;28;20028;-85
2021/04/15 08:00:24;;;;;;;12.40;6.47;;;;;;;12.69;39.02;97647.66;5089144;28;20108;-85
2021/04/15 08:02:55;;;;;;;11.20;5.93;;;;;;;12.76;39.96;97665.06;5045846;28;20020;-86
2021/04/15 08:05:33;;;;;;;10.35;6.70;;;;;;;12.64;40.23;97665.91;5075771;28;20406;-83
2021/04/15 08:08:23;;;;;;;10.10;6.30;;;;;;;11.87;40.67;97670.13;5075944;28;20407;-84
2021/04/15 08:11:15;;;;;;;13.82;8.88;;;;;;;11.93;41.30;97672.41;5061498;28;20096;-84
2021/04/15 08:13:59;;;;;;;15.20;7.45;;;;;;;11.88;42.57;97666.50;5084763;28;20054;-84
2021/04/15 08:16:56;;;;;;;9.38;6.65;;;;;;;11.78;41.86;97672.59;5095739;28;20027;-84
2021/04/15 08:19:35;;;;;;;15.20;6.53;;;;;;;11.57;42.21;97676.59;5075088;28;20127;-84
2021/04/15 08:22:22;;;;;;;13.73;6.07;;;;;;;11.59;40.86;97674.69;5075738;28;20070;-84
2021/04/15 08:25:00;;;;;;;14.15;6.28;;;;;;;11.56;40.96;97669.53;5055481;28;20119;-84
2021/04/15 08:27:31;;;;;;;8.57;5.90;;;;;;;11.06;42.26;97668.22;5058325;28;20039;-84
2021/04/15 08:30:21;;;;;;;15.52;6.78;;;;;;;10.62;43.72;97672.72;5065969;28;20096;-85
2021/04/15 08:33:07;;;;;;;9.38;5.68;;;;;;;10.72;43.46;97671.22;5072830;28;20020;-83
2021/04/15 08:35:35;;;;;;;11.60;6.65;;;;;;;11.25;42.42;97666.13;5068000;28;20027;-82
2021/04/15 08:38:11;;;;;;;9.10;6.15;;;;;;;11.30;41.93;97661.31;5056710;28;20549;-83
2021/04/15 08:40:53;;;;;;;10.90;7.05;;;;;;;11.62;41.32;97658.41;5074319;28;20031;-85
2021/04/15 08:43:27;;;;;;;10.85;6.30;;;;;;;11.47;40.70;97654.03;5108038;28;20028;-83
2021/04/15 08:46:13;;;;;;;8.82;5.97;;;;;;;11.63;40.66;97654.78;5077474;28;20043;-84
2021/04/15 08:48:47;;;;;;;12.80;7.95;;;;;;;11.65;41.51;97652.84;5070035;28;20048;-84
2021/04/15 08:51:35;;;;;;;8.18;5.45;;;;;;;11.57;41.30;97661.38;5077651;28;20081;-84
2021/04/15 08:54:13;;;;;;;17.67;8.40;;;;;;;11.61;42.06;97662.91;5071628;28;20409;-84
2021/04/15 08:56:46;;;;;;;12.95;6.95;;;;;;;11.50;41.94;97667.25;5076609;28;20035;-84
2021/04/15 08:59:26;;;;;;;13.15;7.35;;;;;;;10.92;44.59;97667.34;5049959;28;20039;-83
2021/04/15 09:02:20;;;;;;;10.50;7.57;;;;;;;10.47;46.03;97660.28;5062661;28;20027;-83
2021/04/15 09:05:00;;;;;;;22.55;9.05;;;;;;;10.42;46.01;97667.72;5067401;28;20031;-84
2021/04/15 09:08:08;;;;;;;11.38;7.45;;;;;;;10.28;45.53;97665.84;5075524;28;20437;-83
2021/04/15 09:10:42;;;;;;;20.77;9.50;;;;;;;10.34;46.14;97671.69;5106262;28;20040;-81
2021/04/15 09:13:36;;;;;;;16.75;8.90;;;;;;;10.68;44.96;97661.66;5100447;28;20060;-83
2021/04/15 09:16:30;;;;;;;15.98;8.40;;;;;;;10.70;44.45;97666.00;5076883;28;20875;-83
2021/04/15 09:18:59;;;;;;;14.38;8.13;;;;;;;10.70;44.00;97657.09;5074578;28;20557;-84
2021/04/15 09:21:50;;;;;;;12.90;8.48;;;;;;;10.67;44.27;97658.16;5075575;28;20031;-83
2021/04/15 09:24:22;;;;;;;11.75;8.00;;;;;;;11.06;44.09;97660.19;5067715;28;20036;-82
2021/04/15 09:27:09;;;;;;;11.57;8.15;;;;;;;11.24;43.11;97660.84;5073273;28;20407;-84
2021/04/15 09:29:57;;;;;;;16.42;8.85;;;;;;;11.44;42.04;97663.13;5048856;28;20477;-83
2021/04/15 09:32:32;;;;;;;14.82;9.38;;;;;;;11.45;40.90;97648.78;5073054;28;20122;-83
2021/04/15 09:35:19;;;;;;;14.95;8.20;;;;;;;11.72;41.37;97648.88;5069125;28;20415;-83
2021/04/15 09:37:57;;;;;;;9.98;6.90;;;;;;;12.00;39.55;97642.56;5093160;28;20026;-83
2021/04/15 09:41:01;;;;;;;14.30;8.13;;;;;;;11.72;40.11;97638.97;5059502;28;20352;-84
2021/04/15 09:43:42;;;;;;;10.77;6.65;;;;;;;11.59;39.64;97643.41;5058573;28;20043;-83
2021/04/15 09:46:31;;;;;;;12.35;8.02;;;;;;;11.93;39.36;97631.38;5070414;28;20025;-83
2021/04/15 09:49:15;;;;;;;10.10;6.95;;;;;;;12.40;38.09;97629.03;5054960;28;20080;-83
2021/04/15 09:51:41;;;;;;;9.48;6.50;;;;;;;12.98;38.53;97627.72;5071721;28;20097;-85
2021/04/15 09:54:26;;;;;;;13.23;7.47;;;;;;;13.47;37.78;97631.31;5070447;28;20480;-83
2021/04/15 09:57:16;;;;;;;26.85;14.60;;;;;;;14.05;36.51;97617.16;5059738;28;20800;-84
2021/04/15 10:00:07;;;;;;;9.38;7.00;;;;;;;14.48;35.94;97622.88;5049198;28;20098;-84
2021/04/15 10:03:04;;;;;;;8.35;6.20;;;;;;;14.54;35.52;97617.03;5059726;28;20506;-84
2021/04/15 10:05:29;;;;;;;15.68;7.70;;;;;;;14.53;34.53;97612.63;5069830;28;20028;-84
2021/04/15 10:08:11;;;;;;;18.85;6.65;;;;;;;13.85;34.98;97608.84;5073817;28;20028;-84
2021/04/15 10:10:51;;;;;;;7.37;5.60;;;;;;;13.35;35.42;97609.88;5075228;28;20102;-85
2021/04/15 10:13:26;;;;;;;9.07;5.53;;;;;;;13.27;34.74;97607.72;5060776;28;20031;-84
2021/04/15 10:16:00;;;;;;;11.80;7.95;;;;;;;13.12;35.66;97613.34;5074087;28;20093;-84
2021/04/15 10:19:02;;;;;;;10.05;6.38;;;;;;;13.20;35.31;97600.19;5087684;28;20020;-86
2021/04/15 10:22:01;;;;;;;10.55;6.78;;;;;;;12.68;37.84;97616.41;5080501;28;20042;-84
2021/04/15 10:24:37;;;;;;;10.60;6.78;;;;;;;12.73;38.20;97615.16;5054364;28;20428;-86
2021/04/15 10:27:33;;;;;;;9.60;6.20;;;;;;;13.11;36.10;97612.47;5060904;28;20070;-85
2021/04/15 10:30:26;;;;;;;10.75;5.97;;;;;;;13.00;37.02;97599.78;5108557;28;20486;-83
2021/04/15 10:33:19;;;;;;;13.88;7.53;;;;;;;13.72;35.72;97598.13;5077076;28;20411;-84
2021/04/15 10:36:21;;;;;;;8.90;5.65;;;;;;;14.15;34.37;97589.59;5104031;28;20028;-86
2021/04/15 10:39:13;;;;;;;9.40;6.90;;;;;;;15.62;32.27;97566.19;5067920;28;20047;-84
2021/04/15 10:41:57;;;;;;;10.90;7.30;;;;;;;16.99;29.99;97577.00;5076084;28;20031;-83
2021/04/15 10:44:41;;;;;;;10.38;5.80;;;;;;;17.97;30.26;97577.22;5079270;28;20870;-77
2021/04/15 10:47:34;;;;;;;24.92;9.05;;;;;;;18.69;29.36;97572.28;5070472;28;20123;-84
2021/04/15 10:50:09;;;;;;;8.85;6.13;;;;;;;19.43;27.03;97551.56;5078235;28;20054;-84
2021/04/15 10:52:59;;;;;;;13.32;7.63;;;;;;;18.97;26.95;97543.41;5074007;28;20062;-82
2021/04/15 10:55:25;;;;;;;5.72;4.32;;;;;;;17.07;27.91;97552.00;5059741;28;20408;-83
2021/04/15 10:57:52;;;;;;;6.25;4.38;;;;;;;15.67;30.46;97555.88;5078468;28;20066;-83
2021/04/15 11:00:26;;;;;;;6.70;5.28;;;;;;;14.99;31.84;97556.03;5065472;28;20097;-84
2021/04/15 11:02:58;;;;;;;9.68;5.90;;;;;;;15.00;31.19;97536.19;5065446;28;20036;-84
2021/04/15 11:05:29;;;;;;;9.27;6.28;;;;;;;14.43;33.33;97571.22;5065791;28;20078;-84
2021/04/15 11:07:57;;;;;;;9.18;4.47;;;;;;;13.49;33.92;97559.53;5073418;28;20056;-83
2021/04/15 11:10:27;;;;;;;8.60;5.00;;;;;;;13.68;34.10;97542.91;5047686;28;20028;-83
2021/04/15 11:13:19;;;;;;;22.52;5.40;;;;;;;14.27;33.85;97570.69;5075756;28;20505;-83
2021/04/15 11:15:51;;;;;;;9.52;5.22;;;;;;;14.52;32.00;97556.19;5058029;28;20019;-83
2021/04/15 11:18:25;;;;;;;17.48;6.63;;;;;;;14.77;33.23;97544.38;5073901;28;20476;-84
2021/04/15 11:20:51;;;;;;;145.85;77.38;;;;;;;15.29;33.14;97559.94;5086915;28;20039;-83
2021/04/15 11:23:22;;;;;;;14.93;9.45;;;;;;;15.24;31.81;97568.38;5077493;28;20032;-83
2021/04/15 11:25:52;;;;;;;12.07;7.28;;;;;;;14.35;32.33;97525.22;5073760;28;20108;-84
2021/04/15 11:28:18;;;;;;;8.65;5.55;;;;;;;14.50;33.42;97575.16;5058040;28;20927;-83
2021/04/15 11:30:47;;;;;;;7.53;5.63;;;;;;;14.11;33.21;97503.72;5084669;28;20060;-84
2021/04/15 11:33:32;;;;;;;10.85;7.47;;;;;;;13.73;34.53;97556.00;5051313;28;20515;-83
2021/04/15 11:36:20;;;;;;;10.55;5.70;;;;;;;14.27;33.61;97576.06;5052573;28;20414;-83
2021/04/15 11:38:49;;;;;;;10.02;6.43;;;;;;;14.84;33.16;97581.47;5075475;28;20082;-84
2021/04/15 11:41:28;;;;;;;16.85;10.32;;;;;;;15.32;33.15;97570.47;5072179;28;20020;-83
2021/04/15 11:44:06;;;;;;;11.52;6.55;;;;;;;14.67;32.45;97571.19;5059585;28;20024;-85
2021/04/15 11:46:52;;;;;;;9.98;6.30;;;;;;;14.28;32.85;97545.47;5054248;28;20029;-86
2021/04/15 11:49:33;;;;;;;8.80;6.43;;;;;;;14.45;34.75;97561.22;5058598;28;20135;-85
2021/04/15 11:52:13;;;;;;;9.10;6.35;;;;;;;15.19;32.89;97565.22;5078431;28;20553;-84
2021/04/15 11:54:40;;;;;;;15.93;5.53;;;;;;;15.62;30.46;97555.41;5060360;28;20411;-85
2021/04/15 11:57:18;;;;;;;6.85;5.60;;;;;;;15.66;30.82;97561.38;5080932;28;20028;-85
2021/04/15 12:00:01;;;;;;;17.50;9.82;;;;;;;15.92;31.46;97556.53;5077063;28;20044;-85
2021/04/15 12:02:31;;;;;;;;;;;;;;;15.32;32.08;97565.09;5072399;28;20456;-85
2021/04/15 12:05:27;;;;;;;12.98;6.95;;;;;;;15.31;32.75;97560.69;5073215;28;20403;-84
2021/04/15 12:08:18;;;;;;;150.13;68.95;;;;;;;15.60;31.69;97554.66;5067869;28;20044;-84
2021/04/15 12:10:50;;;;;;;30.30;9.35;;;;;;;15.77;31.67;97549.72;5059490;28;20518;-83
2021/04/15 12:13:37;;;;;;;34.20;16.35;;;;;;;15.55;30.77;97538.00;5076964;28;20119;-84
2021/04/15 12:16:13;;;;;;;34.00;17.38;;;;;;;15.63;32.26;97549.00;5070032;28;20065;-82
2021/04/15 12:18:56;;;;;;;34.03;18.52;;;;;;;15.70;32.12;97546.66;5082745;28;20087;-85
2021/04/15 12:21:40;;;;;;;;;;;;;;;14.94;33.69;97550.16;5064969;28;20034;-85
2021/04/15 12:24:10;;;;;;;42.20;21.95;;;;;;;15.11;33.97;97560.44;5064892;28;19916;-84